Time;durP1;ratioP1;P1;durP2;ratioP2;P2;SDS_P1;SDS_P2;PMS_P1;PMS_P2;Temp;Humidity;BMP_temperature;BMP_pressure;BME280_temperature;BME280_humidity;BME280_pressure;Samples;Min_cycle;Max_cycle;Signal;HPM_P1;HPM_P2
2023/10/13 00:02:08;;;;;;;9.88;6.30;;;24.10;63.90;;;;;;4963752;28;86928;-83
2023/10/13 00:04:37;;;;;;;10.48;6.65;;;24.00;63.80;;;;;;4964422;28;86046;-84
2023/10/13 00:07:04;;;;;;;8.13;6.25;;;24.00;63.50;;;;;;4964893;28;86301;-84
2023/10/13 00:09:33;;;;;;;9.07;5.97;;;24.00;63.90;;;;;;4965240;28;86983;-85
2023/10/13 00:12:00;;;;;;;10.82;6.53;;;24.00;63.80;;;;;;4967122;28;86707;-85
2023/10/13 00:14:34;;;;;;;9.35;6.25;;;24.00;63.90;;;;;;4964955;28;85950;-83
2023/10/13 00:17:04;;;;;;;9.50;6.13;;;24.00;63.80;;;;;;4965117;28;85998;-83
2023/10/13 00:19:38;;;;;;;8.13;5.32;;;24.00;63.80;;;;;;4965404;28;87311;-83
2023/10/13 00:22:27;;;;;;;8.80;5.75;;;24.00;63.80;;;;;;4964944;28;86325;-84
2023/10/13 00:24:58;;;;;;;8.52;5.78;;;24.00;63.90;;;;;;4964202;28;86929;-86
2023/10/13 00:27:33;;;;;;;8.70;6.07;;;24.00;63.90;;;;;;4963873;28;86225;-83
2023/10/13 00:30:33;;;;;;;9.13;5.78;;;23.90;63.70;;;;;;4966827;28;86934;-83
2023/10/13 00:33:01;;;;;;;10.50;6.13;;;23.90;63.80;;;;;;4965325;28;90912;-83
2023/10/13 00:35:29;;;;;;;9.05;5.97;;;23.90;63.90;;;;;;4965787;28;86080;-84
2023/10/13 00:38:03;;;;;;;10.30;5.57;;;23.90;63.80;;;;;;4965010;28;86879;-83
2023/10/13 00:43:04;;;;;;;9.43;6.45;;;23.90;63.80;;;;;;4963252;28;87020;-83
2023/10/13 00:45:34;;;;;;;9.13;5.75;;;23.90;63.90;;;;;;4962651;28;85804;-83
2023/10/13 00:48:01;;;;;;;9.48;6.15;;;23.90;63.90;;;;;;4964022;28;86245;-83
2023/10/13 00:50:29;;;;;;;9.48;6.13;;;23.80;63.70;;;;;;4964311;28;86708;-83
2023/10/13 00:52:55;;;;;;;8.05;5.60;;;23.80;64.00;;;;;;4965498;28;87867;-83
2023/10/13 00:55:32;;;;;;;9.85;6.32;;;23.80;63.80;;;;;;4956495;28;86376;-84
2023/10/13 00:58:03;;;;;;;8.98;6.10;;;23.80;64.20;;;;;;4964489;28;86552;-83
2023/10/13 01:00:30;;;;;;;10.30;6.05;;;23.80;64.10;;;;;;4964430;28;86526;-84
2023/10/13 01:02:56;;;;;;;7.97;5.45;;;23.80;64.20;;;;;;4966024;28;86789;-83
2023/10/13 01:05:25;;;;;;;8.35;5.25;;;23.80;64.10;;;;;;4964505;28;85771;-84
2023/10/13 01:07:58;;;;;;;7.30;5.38;;;23.80;64.10;;;;;;4964198;28;86325;-84
2023/10/13 01:10:27;;;;;;;10.32;6.20;;;23.80;64.20;;;;;;4964057;28;86838;-82
2023/10/13 01:12:54;;;;;;;9.32;6.15;;;23.80;64.10;;;;;;4963048;28;86586;-84
2023/10/13 01:15:22;;;;;;;11.65;6.43;;;23.80;64.20;;;;;;4964208;28;86214;-83
2023/10/13 01:17:48;;;;;;;8.60;5.67;;;23.80;64.20;;;;;;4965884;28;85882;-83
2023/10/13 01:20:36;;;;;;;11.73;6.82;;;23.80;64.10;;;;;;4965896;28;86907;-83
2023/10/13 01:23:10;;;;;;;8.85;5.68;;;23.80;64.10;;;;;;4963566;28;88957;-85
2023/10/13 01:25:36;;;;;;;7.85;5.43;;;23.70;64.10;;;;;;4962876;28;86128;-82
2023/10/13 01:28:01;;;;;;;8.13;5.78;;;23.70;64.10;;;;;;4963103;28;86889;-83
2023/10/13 01:30:27;;;;;;;9.02;5.75;;;23.70;64.20;;;;;;4963238;28;88748;-84
2023/10/13 01:33:00;;;;;;;8.90;5.82;;;23.70;64.20;;;;;;4965136;28;86340;-83
2023/10/13 01:35:34;;;;;;;8.45;5.55;;;23.70;64.00;;;;;;4964327;28;86223;-86
2023/10/13 01:38:00;;;;;;;8.55;5.75;;;23.70;64.10;;;;;;4964901;28;86666;-84
2023/10/13 01:40:28;;;;;;;8.02;5.50;;;23.70;64.10;;;;;;4963036;28;86939;-84
2023/10/13 01:42:55;;;;;;;8.77;5.45;;;23.70;64.20;;;;;;4963900;28;86474;-84
2023/10/13 01:45:21;;;;;;;7.85;5.63;;;23.70;64.20;;;;;;4946496;28;86396;-83
2023/10/13 01:47:50;;;;;;;6.93;5.07;;;23.70;64.30;;;;;;4965279;28;86857;-83
2023/10/13 01:50:21;;;;;;;8.50;6.15;;;23.70;64.20;;;;;;4962449;28;88874;-83
2023/10/13 01:52:47;;;;;;;9.13;5.78;;;23.70;64.30;;;;;;4956126;28;86429;-84
2023/10/13 01:55:14;;;;;;;9.00;5.25;;;23.70;64.20;;;;;;4967207;28;86328;-85
2023/10/13 01:57:42;;;;;;;8.07;5.05;;;23.70;64.10;;;;;;4965021;28;86912;-84
2023/10/13 02:00:18;;;;;;;10.57;6.32;;;23.70;64.30;;;;;;4967393;28;86801;-83
2023/10/13 02:02:49;;;;;;;7.35;4.90;;;23.60;64.20;;;;;;4967481;28;86124;-84
2023/10/13 02:05:16;;;;;;;7.80;5.78;;;23.60;64.20;;;;;;4967841;28;86266;-83
2023/10/13 02:07:45;;;;;;;8.30;5.22;;;23.60;64.00;;;;;;4965889;28;86900;-85
2023/10/13 02:10:12;;;;;;;6.72;5.03;;;23.60;64.00;;;;;;4966730;28;86672;-83
2023/10/13 02:12:44;;;;;;;7.70;4.80;;;23.60;64.20;;;;;;4966928;28;86258;-82
2023/10/13 02:15:26;;;;;;;9.02;5.68;;;23.60;64.20;;;;;;4965391;28;86315;-82
2023/10/13 02:17:54;;;;;;;7.35;5.07;;;23.60;64.10;;;;;;4967662;28;86639;-84
2023/10/13 02:20:23;;;;;;;7.37;5.10;;;23.60;64.10;;;;;;4967555;28;87035;-84
2023/10/13 02:22:49;;;;;;;7.60;5.15;;;23.60;64.10;;;;;;4965570;28;87321;-84
2023/10/13 02:26:03;;;;;;;8.00;5.07;;;23.60;64.20;;;;;;4967830;28;86115;-84
2023/10/13 02:28:02;;;;;;;8.50;5.72;;;23.60;64.10;;;;;;4966044;28;85886;-83
2023/10/13 02:30:29;;;;;;;6.75;5.00;;;23.60;64.10;;;;;;4966481;28;86699;-84
2023/10/13 02:32:55;;;;;;;7.07;5.00;;;23.60;64.20;;;;;;4966478;28;87175;-83
2023/10/13 02:35:41;;;;;;;7.40;4.95;;;23.60;64.20;;;;;;4965981;28;86176;-85
2023/10/13 02:38:11;;;;;;;6.75;5.13;;;23.60;64.30;;;;;;4966820;28;86870;-84
2023/10/13 02:40:40;;;;;;;7.50;4.90;;;23.60;64.20;;;;;;4965321;28;89591;-84
2023/10/13 02:43:05;;;;;;;7.85;4.97;;;23.60;64.10;;;;;;4966597;28;86374;-84
2023/10/13 02:45:35;;;;;;;9.18;5.53;;;23.60;64.20;;;;;;4965065;28;86865;-84
2023/10/13 02:48:13;;;;;;;8.38;5.60;;;23.50;64.20;;;;;;4968788;28;87227;-84
2023/10/13 02:50:43;;;;;;;7.55;5.20;;;23.50;64.20;;;;;;4966905;28;86948;-83
2023/10/13 02:53:19;;;;;;;7.47;5.43;;;23.50;64.20;;;;;;4966192;28;86949;-84
2023/10/13 02:55:52;;;;;;;6.05;4.50;;;23.50;64.00;;;;;;4966053;28;86327;-84
2023/10/13 02:58:18;;;;;;;7.47;5.13;;;23.60;64.10;;;;;;4964438;28;86325;-84
2023/10/13 03:00:44;;;;;;;6.32;4.90;;;23.50;63.90;;;;;;4955559;28;86646;-83
2023/10/13 03:03:10;;;;;;;7.28;5.50;;;23.50;64.10;;;;;;4966056;28;88345;-83
2023/10/13 03:05:38;;;;;;;8.10;5.22;;;23.50;64.20;;;;;;4966969;28;86871;-83
2023/10/13 03:08:05;;;;;;;7.30;4.97;;;23.50;64.20;;;;;;4966864;28;86605;-84
2023/10/13 03:10:32;;;;;;;7.50;5.05;;;23.50;64.10;;;;;;4963579;28;86824;-84
2023/10/13 03:12:58;;;;;;;7.18;4.85;;;23.50;64.20;;;;;;4966359;28;86425;-84
2023/10/13 03:15:30;;;;;;;6.47;4.53;;;23.50;64.10;;;;;;4965152;28;86040;-84
2023/10/13 03:17:58;;;;;;;5.68;4.68;;;23.50;64.30;;;;;;4965598;28;86253;-84
2023/10/13 03:20:30;;;;;;;7.15;4.97;;;23.50;64.30;;;;;;4964983;28;90174;-83
2023/10/13 03:22:56;;;;;;;9.88;5.32;;;23.50;64.20;;;;;;4966696;28;88259;-84
2023/10/13 03:25:42;;;;;;;7.18;4.60;;;23.50;64.20;;;;;;4965553;28;86282;-84
2023/10/13 03:28:11;;;;;;;9.43;4.85;;;23.50;64.20;;;;;;4966944;28;86365;-84
2023/10/13 03:30:38;;;;;;;;;;;23.50;64.10;;;;;;4966922;28;86905;-84
2023/10/13 03:33:09;;;;;;;8.52;5.55;;;23.50;63.90;;;;;;4967785;28;87982;-84
2023/10/13 03:35:41;;;;;;;7.13;4.70;;;23.50;63.90;;;;;;4964740;28;87809;-85
2023/10/13 03:38:16;;;;;;;6.93;4.75;;;23.40;64.10;;;;;;4965786;28;87374;-84
2023/10/13 03:40:48;;;;;;;9.43;5.40;;;23.40;64.20;;;;;;4963340;28;88268;-83
2023/10/13 03:43:16;;;;;;;8.73;5.47;;;23.40;64.20;;;;;;4962468;28;89440;-84
2023/10/13 03:45:44;;;;;;;6.55;4.93;;;23.40;64.20;;;;;;4963305;28;88389;-84
2023/10/13 03:51:14;;;;;;;6.63;5.03;;;23.40;64.10;;;;;;4964838;28;89428;-83
2023/10/13 03:53:54;;;;;;;9.38;4.75;;;23.40;64.00;;;;;;4963797;28;88592;-82
2023/10/13 03:56:41;;;;;;;7.15;4.72;;;23.40;64.10;;;;;;4963025;28;90742;-85
2023/10/13 03:59:18;;;;;;;7.03;4.78;;;23.40;64.10;;;;;;4959795;28;87586;-85
2023/10/13 04:01:49;;;;;;;6.63;5.07;;;23.40;64.20;;;;;;4963385;28;87156;-83
2023/10/13 04:17:23;;;;;;;7.05;4.75;;;23.40;64.00;;;;;;4963730;28;87409;-86
2023/10/13 04:39:09;;;;;;;7.38;4.70;;;23.40;64.20;;;;;;4963037;28;92261;-83
2023/10/13 05:51:33;;;;;;;6.05;4.38;;;23.30;64.10;;;;;;4963338;28;87569;-84
2023/10/13 06:30:12;;;;;;;5.38;3.63;;;23.30;63.60;;;;;;4963479;28;87651;-85
2023/10/13 06:32:39;;;;;;;5.07;3.30;;;23.30;63.60;;;;;;4959884;28;89571;-84
2023/10/13 06:35:15;;;;;;;6.38;4.07;;;23.30;63.60;;;;;;4958687;28;89968;-86
2023/10/13 06:37:41;;;;;;;6.47;3.30;;;23.40;63.60;;;;;;4960144;28;90329;-83
2023/10/13 06:43:11;;;;;;;6.22;3.70;;;23.40;63.20;;;;;;4964997;28;86939;-84
2023/10/13 06:45:37;;;;;;;5.55;3.35;;;23.40;63.50;;;;;;4966551;28;88255;-84
2023/10/13 06:48:04;;;;;;;6.70;4.18;;;23.40;63.50;;;;;;4967508;28;87411;-86
2023/10/13 06:50:39;;;;;;;6.38;4.20;;;23.40;63.80;;;;;;4965704;28;88172;-86
2023/10/13 06:53:05;;;;;;;6.90;4.25;;;23.30;64.40;;;;;;4967571;28;88503;-85
2023/10/13 06:55:35;;;;;;;8.13;3.90;;;23.40;64.50;;;;;;4969338;28;88042;-86
2023/10/13 06:58:13;;;;;;;6.18;3.85;;;23.40;64.90;;;;;;4965883;28;88054;-86
2023/10/13 07:00:52;;;;;;;11.05;4.43;;;23.40;64.60;;;;;;4965820;28;87957;-83
2023/10/13 07:03:24;;;;;;;7.25;4.07;;;23.40;64.80;;;;;;4965656;28;87388;-85
2023/10/13 07:05:51;;;;;;;5.30;4.10;;;23.40;65.10;;;;;;4965932;28;92037;-85
2023/10/13 07:08:19;;;;;;;7.68;4.38;;;23.40;65.20;;;;;;4971552;28;87752;-85
2023/10/13 07:11:04;;;;;;;5.03;3.78;;;23.40;65.20;;;;;;4963167;28;88431;-84
2023/10/13 07:13:37;;;;;;;8.00;4.13;;;23.40;64.90;;;;;;4965802;28;87837;-85
2023/10/13 07:16:13;;;;;;;7.22;3.60;;;23.40;65.00;;;;;;4963162;28;91581;-84
2023/10/13 07:18:49;;;;;;;6.22;4.03;;;23.40;65.30;;;;;;4965575;28;89126;-88
2023/10/13 07:21:15;;;;;;;6.32;4.32;;;23.40;65.30;;;;;;4969853;28;87499;-87
2023/10/13 07:24:00;;;;;;;7.90;3.95;;;23.40;65.30;;;;;;4965149;28;89264;-86
2023/10/13 07:26:26;;;;;;;7.90;4.47;;;23.40;65.30;;;;;;4967664;28;90884;-85
2023/10/13 07:28:52;;;;;;;7.32;4.53;;;23.40;65.30;;;;;;4966211;28;87840;-86
2023/10/13 07:31:27;;;;;;;6.25;3.67;;;23.40;65.30;;;;;;4966807;28;87514;-87
2023/10/13 07:33:56;;;;;;;6.43;4.63;;;23.40;65.40;;;;;;4967508;28;89684;-86
2023/10/13 07:36:33;;;;;;;7.90;4.13;;;23.40;65.30;;;;;;4967116;28;89823;-85
2023/10/13 07:39:20;;;;;;;5.05;3.75;;;23.40;65.00;;;;;;4965897;28;88424;-85
2023/10/13 07:41:51;;;;;;;11.25;3.80;;;23.40;65.20;;;;;;4965632;28;88403;-86
2023/10/13 07:44:24;;;;;;;5.90;3.92;;;23.40;65.30;;;;;;4966795;28;88287;-85
2023/10/13 07:46:58;;;;;;;7.13;4.68;;;23.40;65.30;;;;;;4982034;28;91027;-86
2023/10/13 07:49:32;;;;;;;9.98;4.72;;;23.40;65.20;;;;;;4966248;28;88546;-87
2023/10/13 07:57:30;;;;;;;31.30;9.45;;;23.40;65.20;;;;;;4966433;28;87788;-85
2023/10/13 08:00:08;;;;;;;32.08;10.90;;;23.40;65.00;;;;;;4965004;28;88856;-86
2023/10/13 08:02:49;;;;;;;34.22;10.40;;;23.40;65.10;;;;;;4966067;28;87243;-85
2023/10/13 08:05:29;;;;;;;27.80;10.13;;;23.50;65.20;;;;;;4966419;28;88020;-85
2023/10/13 08:07:55;;;;;;;28.25;9.73;;;23.40;65.20;;;;;;4965526;28;89698;-84
2023/10/13 08:10:29;;;;;;;41.15;11.35;;;23.50;65.40;;;;;;4962372;28;88408;-86
2023/10/13 08:12:58;;;;;;;32.95;10.35;;;23.50;65.50;;;;;;4969816;28;87852;-86
2023/10/13 08:15:33;;;;;;;35.97;11.10;;;23.50;65.30;;;;;;4965890;28;87902;-86
2023/10/13 08:18:04;;;;;;;39.88;12.00;;;23.50;65.70;;;;;;4967979;28;87656;-86
2023/10/13 08:20:30;;;;;;;48.00;12.38;;;23.50;65.60;;;;;;4966222;28;88986;-85
2023/10/13 08:23:14;;;;;;;35.97;11.60;;;23.50;65.60;;;;;;4966802;28;87512;-85
2023/10/13 08:31:22;;;;;;;32.03;10.43;;;23.50;65.10;;;;;;4965506;28;87557;-85
2023/10/13 08:33:48;;;;;;;38.95;11.25;;;23.50;65.30;;;;;;4965645;28;88779;-85
2023/10/13 08:36:30;;;;;;;24.60;9.80;;;23.50;65.30;;;;;;4966088;28;88131;-86
2023/10/13 08:39:15;;;;;;;23.10;9.43;;;23.50;65.20;;;;;;4967024;28;89201;-84
2023/10/13 08:41:58;;;;;;;28.17;10.00;;;23.50;65.30;;;;;;4966268;28;87991;-84
2023/10/13 08:44:38;;;;;;;25.88;8.85;;;23.50;65.20;;;;;;4966313;28;87757;-88
2023/10/13 08:47:05;;;;;;;36.05;9.82;;;23.50;65.00;;;;;;4967822;28;87868;-86
2023/10/13 08:49:39;;;;;;;25.83;9.10;;;23.50;64.70;;;;;;4968978;28;88177;-86
2023/10/13 08:52:45;;;;;;;20.73;8.85;;;23.50;65.00;;;;;;4968278;28;90461;-88
2023/10/13 08:55:36;;;;;;;21.20;8.75;;;23.50;65.00;;;;;;4967707;28;87835;-90
2023/10/13 08:58:13;;;;;;;22.95;9.10;;;23.50;65.10;;;;;;4967268;28;87933;-87
2023/10/13 09:00:55;;;;;;;25.23;9.60;;;23.50;65.10;;;;;;4964034;28;91348;-86
2023/10/13 09:03:38;;;;;;;22.92;9.00;;;23.60;65.00;;;;;;4968526;28;87892;-89
2023/10/13 09:06:06;;;;;;;20.85;8.43;;;23.50;65.10;;;;;;4969286;28;87632;-88
2023/10/13 09:09:04;;;;;;;19.05;8.00;;;23.50;65.00;;;;;;4958682;28;87653;-87
2023/10/13 09:11:37;;;;;;;24.15;8.32;;;23.60;65.70;;;;;;4968180;28;89480;-88
2023/10/13 09:14:03;;;;;;;20.88;8.32;;;23.60;65.20;;;;;;4968424;28;87879;-87
2023/10/13 09:19:07;;;;;;;18.05;8.45;;;23.50;65.40;;;;;;4967228;28;87051;-88
2023/10/13 09:24:21;;;;;;;19.95;9.18;;;23.60;65.90;;;;;;4968497;28;87862;-85
2023/10/13 09:26:53;;;;;;;14.98;8.00;;;23.60;65.80;;;;;;4964764;28;88289;-84
2023/10/13 09:29:19;;;;;;;17.95;7.88;;;23.60;66.10;;;;;;4965473;28;87463;-86
2023/10/13 09:31:50;;;;;;;21.80;9.30;;;23.60;66.00;;;;;;4966939;28;88131;-87
2023/10/13 09:34:23;;;;;;;22.90;8.82;;;23.60;66.50;;;;;;4961455;28;91467;-84
2023/10/13 09:36:55;;;;;;;16.15;7.30;;;23.60;66.50;;;;;;4965647;28;87425;-84
2023/10/13 09:40:05;;;;;;;13.95;7.07;;;23.60;64.80;;;;;;4967970;28;88403;-84
2023/10/13 09:42:18;;;;;;;21.40;8.95;;;23.60;64.80;;;;;;4966117;28;87946;-86
2023/10/13 09:44:51;;;;;;;17.42;8.90;;;23.70;65.40;;;;;;4968356;28;87419;-83
2023/10/13 09:47:24;;;;;;;14.45;8.50;;;23.70;65.70;;;;;;4965954;28;87401;-87
2023/10/13 09:49:57;;;;;;;16.63;7.53;;;23.70;65.60;;;;;;4968648;28;87622;-84
2023/10/13 09:52:27;;;;;;;12.90;7.45;;;23.70;65.20;;;;;;4956195;28;88969;-86
2023/10/13 09:55:09;;;;;;;;;;;23.70;65.50;;;;;;4968430;28;89743;-86
2023/10/13 09:57:40;;;;;;;14.85;7.25;;;23.70;65.30;;;;;;4960045;28;87212;-86
2023/10/13 10:03:02;;;;;;;16.23;6.25;;;23.70;65.40;;;;;;4966767;28;92730;-85
2023/10/13 10:05:34;;;;;;;16.95;7.63;;;23.70;65.40;;;;;;4968179;28;88363;-86
2023/10/13 10:08:01;;;;;;;13.45;7.35;;;23.70;65.50;;;;;;4966963;28;88030;-85
2023/10/13 10:10:47;;;;;;;11.10;7.00;;;23.70;65.60;;;;;;4966004;28;89315;-85
2023/10/13 10:13:59;;;;;;;12.85;7.60;;;23.70;65.70;;;;;;4965963;28;88697;-86
2023/10/13 10:16:59;;;;;;;12.00;7.82;;;23.70;65.70;;;;;;4960292;28;93122;-86
2023/10/13 10:19:27;;;;;;;12.77;6.68;;;23.70;65.90;;;;;;4966527;28;88932;-85
2023/10/13 10:22:16;;;;;;;12.80;7.68;;;23.70;65.80;;;;;;4965329;28;89710;-85
2023/10/13 10:24:46;;;;;;;13.88;6.50;;;23.70;65.70;;;;;;4966861;28;87429;-87
2023/10/13 10:27:15;;;;;;;14.35;7.00;;;23.70;65.70;;;;;;4967038;28;88977;-84
2023/10/13 10:29:53;;;;;;;10.40;6.78;;;23.70;65.90;;;;;;4966972;28;87849;-85
2023/10/13 10:32:19;;;;;;;10.77;7.20;;;23.70;66.00;;;;;;4968615;28;87919;-83
2023/10/13 10:34:45;;;;;;;10.70;7.57;;;23.70;70.70;;;;;;4967441;28;94766;-86
2023/10/13 10:37:12;;;;;;;13.15;7.50;;;23.70;70.30;;;;;;4970381;28;87392;-85
2023/10/13 10:39:49;;;;;;;20.17;7.25;;;23.70;69.80;;;;;;4969210;28;87449;-85
2023/10/13 10:42:15;;;;;;;11.48;7.28;;;23.70;71.00;;;;;;4969653;28;87952;-85
2023/10/13 10:44:47;;;;;;;14.23;7.72;;;23.70;73.30;;;;;;4958907;28;88535;-85
2023/10/13 10:47:36;;;;;;;9.02;6.35;;;23.70;71.80;;;;;;4968344;28;88343;-85
2023/10/13 10:50:19;;;;;;;15.55;8.07;;;23.70;72.70;;;;;;4967956;28;87392;-85
2023/10/13 10:52:46;;;;;;;11.70;7.40;;;23.70;71.80;;;;;;4969160;28;87473;-86
2023/10/13 10:55:14;;;;;;;12.98;7.45;;;23.70;71.10;;;;;;4961588;28;87785;-85
2023/10/13 10:57:43;;;;;;;15.30;7.43;;;23.70;69.80;;;;;;4969327;28;87764;-85
2023/10/13 11:00:37;;;;;;;10.23;6.13;;;23.70;68.20;;;;;;4967174;28;88598;-85
2023/10/13 11:03:04;;;;;;;11.90;6.05;;;23.70;67.10;;;;;;4968501;28;92509;-84
2023/10/13 11:05:33;;;;;;;13.23;6.53;;;23.70;66.50;;;;;;4968425;28;88042;-84
2023/10/13 11:07:59;;;;;;;11.40;6.50;;;23.70;66.30;;;;;;4966254;28;88917;-85
2023/10/13 11:10:27;;;;;;;13.35;6.65;;;23.70;65.80;;;;;;4967135;28;88528;-85
2023/10/13 11:13:14;;;;;;;17.77;7.15;;;23.70;65.70;;;;;;4966998;28;88606;-84
2023/10/13 11:15:46;;;;;;;22.15;7.55;;;23.70;65.60;;;;;;4966853;28;89195;-85
2023/10/13 11:18:21;;;;;;;14.60;7.13;;;23.70;65.30;;;;;;4969054;28;87672;-87
2023/10/13 11:20:54;;;;;;;14.10;7.35;;;23.70;65.10;;;;;;4965536;28;87436;-84
2023/10/13 11:23:25;;;;;;;15.05;6.97;;;23.70;64.80;;;;;;4966513;28;87742;-84
2023/10/13 11:25:59;;;;;;;12.48;8.13;;;23.70;64.80;;;;;;4966926;28;88047;-86
2023/10/13 11:28:28;;;;;;;16.50;7.78;;;23.70;64.60;;;;;;4969633;28;87975;-88
2023/10/13 11:31:29;;;;;;;15.13;6.73;;;23.70;64.20;;;;;;4967173;28;87654;-88
2023/10/13 11:33:46;;;;;;;10.75;6.65;;;23.70;63.70;;;;;;4958861;28;87543;-87
2023/10/13 11:36:22;;;;;;;13.20;6.43;;;23.70;63.80;;;;;;4969531;28;89326;-86
2023/10/13 11:41:18;;;;;;;16.90;7.55;;;23.70;63.50;;;;;;4959615;28;87845;-84
2023/10/13 11:46:15;;;;;;;12.07;7.18;;;23.70;63.60;;;;;;4968750;28;87834;-87
2023/10/13 11:49:03;;;;;;;18.30;6.95;;;23.70;63.50;;;;;;4967689;28;87869;-87
2023/10/13 11:51:32;;;;;;;14.35;6.78;;;23.70;63.40;;;;;;4969141;28;87583;-86
2023/10/13 11:54:00;;;;;;;14.55;6.93;;;23.70;63.10;;;;;;4971624;28;87232;-87
2023/10/13 11:56:26;;;;;;;15.60;6.50;;;23.70;62.60;;;;;;4966699;28;90940;-88
2023/10/13 11:58:51;;;;;;;14.80;7.10;;;23.70;62.50;;;;;;4967206;28;88092;-86
2023/10/13 12:11:50;;;;;;;10.23;5.35;;;23.70;61.30;;;;;;4966825;28;87681;-88
2023/10/13 12:14:17;;;;;;;16.55;7.07;;;23.70;61.10;;;;;;4968987;28;87324;-85
2023/10/13 12:16:51;;;;;;;18.00;7.13;;;23.70;61.10;;;;;;4968229;28;88703;-85
2023/10/13 12:19:17;;;;;;;14.88;6.55;;;23.70;61.10;;;;;;4960786;28;86908;-87
2023/10/13 12:21:44;;;;;;;13.30;6.40;;;23.70;61.00;;;;;;4971703;28;88356;-86
2023/10/13 12:24:31;;;;;;;19.88;7.55;;;23.70;61.00;;;;;;4968461;28;87617;-86
2023/10/13 12:26:57;;;;;;;12.68;5.80;;;23.70;61.00;;;;;;4964680;28;95499;-86
2023/10/13 12:29:28;;;;;;;10.88;5.82;;;23.70;60.90;;;;;;4967627;28;88348;-87
2023/10/13 12:32:11;;;;;;;14.30;5.82;;;23.70;60.90;;;;;;4963720;28;87746;-86
2023/10/13 12:53:49;;;;;;;18.20;7.70;;;23.70;60.70;;;;;;4967115;28;88190;-87
2023/10/13 12:56:15;;;;;;;12.18;6.50;;;23.70;60.70;;;;;;4965702;28;87967;-87
2023/10/13 12:58:59;;;;;;;15.88;6.88;;;23.70;60.40;;;;;;4965626;28;89053;-87
2023/10/13 13:01:32;;;;;;;18.10;6.60;;;23.70;60.40;;;;;;4966196;28;87481;-85
2023/10/13 13:03:58;;;;;;;11.05;5.68;;;23.70;60.30;;;;;;4965270;28;87950;-85
2023/10/13 13:06:25;;;;;;;9.70;4.90;;;23.70;60.20;;;;;;4967182;28;87415;-86
2023/10/13 13:08:58;;;;;;;12.02;6.28;;;23.70;59.90;;;;;;4967978;28;88352;-86
2023/10/13 13:11:24;;;;;;;18.48;6.55;;;23.70;60.10;;;;;;4967281;28;91019;-87
2023/10/13 13:13:51;;;;;;;13.45;5.68;;;23.70;60.20;;;;;;4966813;28;88492;-86
2023/10/13 13:16:35;;;;;;;10.90;4.97;;;23.70;60.00;;;;;;4966331;28;89391;-86
2023/10/13 13:19:10;;;;;;;14.82;6.03;;;23.70;59.90;;;;;;4963832;28;91233;-87
2023/10/13 13:21:38;;;;;;;11.10;6.15;;;23.70;60.00;;;;;;4965015;28;90985;-86
2023/10/13 13:24:10;;;;;;;15.95;5.38;;;23.70;60.00;;;;;;4969180;28;87568;-86
2023/10/13 13:26:40;;;;;;;14.73;6.50;;;23.70;60.10;;;;;;4967949;28;88558;-85
2023/10/13 13:29:09;;;;;;;13.45;6.25;;;23.70;59.90;;;;;;4965572;28;90437;-86
2023/10/13 13:31:40;;;;;;;16.55;6.32;;;23.70;59.90;;;;;;4966617;28;87623;-86
2023/10/13 13:34:09;;;;;;;12.65;5.22;;;23.70;59.90;;;;;;4965967;28;87650;-87
2023/10/13 13:36:35;;;;;;;9.20;5.20;;;23.70;60.00;;;;;;4966124;28;87031;-85
2023/10/13 13:39:02;;;;;;;9.88;5.57;;;23.70;60.10;;;;;;4968119;28;87118;-85
2023/10/13 13:41:33;;;;;;;15.68;7.88;;;23.70;60.30;;;;;;4962454;28;89273;-86
2023/10/13 13:44:13;;;;;;;13.13;6.50;;;23.70;60.80;;;;;;4964385;28;88578;-86
2023/10/13 13:46:41;;;;;;;15.70;7.65;;;23.70;61.10;;;;;;4964983;28;87476;-84
2023/10/13 13:49:14;;;;;;;12.75;6.88;;;23.70;61.30;;;;;;4965265;28;88104;-84
2023/10/13 13:51:39;;;;;;;16.80;7.28;;;23.70;61.40;;;;;;4963976;28;88472;-83
2023/10/13 13:54:07;;;;;;;14.73;7.63;;;23.70;61.60;;;;;;4967498;28;87568;-84
2023/10/13 13:56:38;;;;;;;17.00;7.70;;;23.70;61.70;;;;;;4968174;28;87679;-83
2023/10/13 13:59:08;;;;;;;10.90;6.57;;;23.70;61.70;;;;;;4967843;28;87958;-85
2023/10/13 14:01:45;;;;;;;12.30;7.07;;;23.70;62.10;;;;;;4968258;28;87590;-86
2023/10/13 14:04:11;;;;;;;16.83;7.28;;;23.70;62.40;;;;;;4970448;28;87806;-86
2023/10/13 14:06:37;;;;;;;17.55;8.13;;;23.80;62.50;;;;;;4962586;28;87773;-85
2023/10/13 14:09:14;;;;;;;17.88;7.80;;;23.80;62.50;;;;;;4982396;28;89047;-86
2023/10/13 14:14:15;;;;;;;17.40;6.25;;;23.70;62.50;;;;;;4969431;28;87283;-86
2023/10/13 14:16:47;;;;;;;12.00;7.15;;;23.80;61.70;;;;;;4968921;28;88092;-86
2023/10/13 14:19:29;;;;;;;17.95;8.52;;;23.80;62.60;;;;;;4967556;28;90463;-87
2023/10/13 14:21:56;;;;;;;14.27;7.63;;;23.70;62.40;;;;;;4969331;28;89974;-88
2023/10/13 14:24:27;;;;;;;13.45;8.20;;;23.80;62.80;;;;;;4970134;28;87067;-87
2023/10/13 14:27:17;;;;;;;13.13;8.18;;;23.80;62.90;;;;;;4969549;28;88437;-87
2023/10/13 14:29:43;;;;;;;13.35;7.68;;;23.70;62.80;;;;;;4967716;28;91419;-88
2023/10/13 14:32:12;;;;;;;13.07;8.57;;;23.80;63.10;;;;;;4969813;28;87870;-87
2023/10/13 14:34:38;;;;;;;11.52;7.65;;;23.80;63.30;;;;;;4969399;28;88344;-86
2023/10/13 14:37:04;;;;;;;13.02;8.32;;;23.80;63.50;;;;;;4967278;28;88878;-87
2023/10/13 14:39:32;;;;;;;13.68;8.38;;;23.70;63.70;;;;;;4968119;28;89600;-87
2023/10/13 14:42:00;;;;;;;13.82;8.48;;;23.80;63.70;;;;;;4968718;28;89313;-87
2023/10/13 14:44:26;;;;;;;13.10;8.15;;;23.70;63.70;;;;;;4970061;28;87670;-88
2023/10/13 14:46:54;;;;;;;14.68;7.57;;;23.80;63.90;;;;;;4969437;28;88294;-88
2023/10/13 14:49:21;;;;;;;8.68;7.75;;;23.80;63.90;;;;;;4968155;28;87049;-87
2023/10/13 14:51:46;;;;;;;11.80;7.82;;;23.80;63.90;;;;;;4968429;28;88288;-86
2023/10/13 14:54:14;;;;;;;11.50;7.97;;;23.80;64.20;;;;;;4970378;28;87775;-85
2023/10/13 14:56:42;;;;;;;16.00;9.05;;;23.80;64.00;;;;;;4967553;28;87517;-86
2023/10/13 14:59:17;;;;;;;12.48;7.82;;;23.80;64.00;;;;;;4962802;28;88862;-85
2023/10/13 15:01:43;;;;;;;13.18;7.13;;;23.80;64.20;;;;;;4963521;28;88700;-88
2023/10/13 15:04:09;;;;;;;17.55;8.10;;;23.80;63.80;;;;;;4951870;28;87538;-88
2023/10/13 15:06:35;;;;;;;13.30;7.75;;;23.80;64.10;;;;;;4964232;28;87504;-88
2023/10/13 15:09:02;;;;;;;11.05;7.63;;;23.80;64.20;;;;;;4962185;28;87820;-88
2023/10/13 15:11:40;;;;;;;15.73;8.40;;;23.80;64.30;;;;;;4960526;28;88016;-87
2023/10/13 15:14:08;;;;;;;14.80;8.13;;;23.80;64.00;;;;;;4960092;28;87653;-89
2023/10/13 15:16:34;;;;;;;12.27;8.13;;;23.80;64.20;;;;;;4962293;28;87443;-89
2023/10/13 15:19:02;;;;;;;8.93;7.00;;;23.80;64.20;;;;;;4961510;28;88015;-88
2023/10/13 15:21:34;;;;;;;10.60;7.07;;;23.80;64.20;;;;;;4960686;28;88100;-87
2023/10/13 15:24:03;;;;;;;14.43;7.85;;;23.80;64.10;;;;;;4960011;28;88309;-88
2023/10/13 15:26:30;;;;;;;10.88;7.55;;;23.80;64.20;;;;;;4957005;28;89933;-88
2023/10/13 15:28:57;;;;;;;10.90;7.68;;;23.80;64.30;;;;;;4959783;28;91526;-87
2023/10/13 15:31:26;;;;;;;15.50;8.88;;;23.80;64.50;;;;;;4961370;28;87875;-87
2023/10/13 15:33:56;;;;;;;11.45;7.20;;;23.80;64.40;;;;;;4961768;28;87979;-88
2023/10/13 15:36:23;;;;;;;10.40;7.63;;;23.90;64.30;;;;;;4961301;28;87624;-88
2023/10/13 15:38:58;;;;;;;13.98;8.65;;;23.90;64.30;;;;;;4960166;28;88046;-88
2023/10/13 15:41:26;;;;;;;14.55;7.90;;;23.90;65.20;;;;;;4958575;28;91224;-88
2023/10/13 15:43:52;;;;;;;10.32;7.53;;;23.90;64.30;;;;;;4961735;28;87985;-87
2023/10/13 15:46:22;;;;;;;10.02;7.78;;;23.90;64.30;;;;;;4959933;28;89897;-87
2023/10/13 15:48:50;;;;;;;15.73;8.13;;;23.90;64.30;;;;;;4959603;28;88734;-87
2023/10/13 15:51:18;;;;;;;9.85;7.43;;;24.00;64.40;;;;;;4961494;28;88538;-88
2023/10/13 15:53:47;;;;;;;10.30;6.80;;;24.00;64.30;;;;;;4961718;28;88461;-88
2023/10/13 15:56:14;;;;;;;9.98;6.10;;;24.00;63.40;;;;;;4961433;28;87408;-87
2023/10/13 15:58:43;;;;;;;10.55;6.32;;;24.00;62.40;;;;;;4959827;28;88120;-88
2023/10/13 16:01:12;;;;;;;10.50;7.47;;;24.00;62.40;;;;;;4960535;28;87899;-87
2023/10/13 16:03:59;;;;;;;;;;;24.00;63.10;;;;;;4960804;28;87346;-87
2023/10/13 16:06:25;;;;;;;11.93;7.07;;;24.10;63.40;;;;;;4962463;28;91560;-87
2023/10/13 16:08:52;;;;;;;13.48;8.15;;;24.10;63.50;;;;;;4961450;28;87658;-87
2023/10/13 16:11:18;;;;;;;12.05;7.55;;;24.10;63.60;;;;;;4961480;28;88073;-87
2023/10/13 16:13:45;;;;;;;9.93;7.03;;;24.10;63.40;;;;;;4959886;28;88878;-87
2023/10/13 16:16:17;;;;;;;11.45;7.25;;;24.10;63.40;;;;;;4959549;28;89273;-88
2023/10/13 16:18:44;;;;;;;11.50;8.15;;;24.20;63.40;;;;;;4960042;28;88131;-88
2023/10/13 16:21:12;;;;;;;9.85;7.00;;;24.10;63.70;;;;;;4961019;28;90294;-87
2023/10/13 16:23:41;;;;;;;9.93;6.90;;;24.20;63.50;;;;;;4959914;28;87490;-87
2023/10/13 16:26:08;;;;;;;10.93;7.32;;;24.20;63.70;;;;;;4957325;28;89292;-88
2023/10/13 16:28:35;;;;;;;11.10;7.57;;;24.20;63.50;;;;;;4959069;28;90520;-88